sensor_id;sensor_type;location;lat;lon;timestamp;P1;durP1;ratioP1;P2;durP2;ratioP2
21754;SDS011;11039;50.028;19.938;2023-03-11T00:01:51;8.52;;;4.00;;
21754;SDS011;11039;50.028;19.938;2023-03-11T00:04:17;8.13;;;4.13;;
21754;SDS011;11039;50.028;19.938;2023-03-11T00:06:43;8.48;;;4.05;;
21754;SDS011;11039;50.028;19.938;2023-03-11T00:09:09;7.25;;;3.88;;
21754;SDS011;11039;50.028;19.938;2023-03-11T00:11:35;9.02;;;4.22;;
21754;SDS011;11039;50.028;19.938;2023-03-11T00:14:01;9.93;;;4.20;;
21754;SDS011;11039;50.028;19.938;2023-03-11T00:16:27;8.10;;;4.18;;
21754;SDS011;11039;50.028;19.938;2023-03-11T00:18:53;6.68;;;3.63;;
21754;SDS011;11039;50.028;19.938;2023-03-11T00:21:19;8.48;;;3.88;;
21754;SDS011;11039;50.028;19.938;2023-03-11T00:23:46;8.07;;;3.45;;
21754;SDS011;11039;50.028;19.938;2023-03-11T00:26:13;9.13;;;3.40;;
21754;SDS011;11039;50.028;19.938;2023-03-11T00:28:39;8.07;;;3.65;;
21754;SDS011;11039;50.028;19.938;2023-03-11T00:31:05;7.55;;;3.60;;
21754;SDS011;11039;50.028;19.938;2023-03-11T00:33:31;7.50;;;4.38;;
21754;SDS011;11039;50.028;19.938;2023-03-11T00:35:57;6.75;;;3.28;;
21754;SDS011;11039;50.028;19.938;2023-03-11T00:38:23;7.70;;;3.60;;
21754;SDS011;11039;50.028;19.938;2023-03-11T00:40:49;6.95;;;3.53;;
21754;SDS011;11039;50.028;19.938;2023-03-11T00:43:15;8.85;;;3.60;;
21754;SDS011;11039;50.028;19.938;2023-03-11T00:45:41;6.75;;;3.38;;
21754;SDS011;11039;50.028;19.938;2023-03-11T00:48:07;7.30;;;3.50;;
21754;SDS011;11039;50.028;19.938;2023-03-11T00:50:34;7.80;;;3.58;;
21754;SDS011;11039;50.028;19.938;2023-03-11T00:53:01;6.32;;;3.30;;
21754;SDS011;11039;50.028;19.938;2023-03-11T00:55:29;6.72;;;3.20;;
21754;SDS011;11039;50.028;19.938;2023-03-11T00:57:56;5.85;;;3.17;;
21754;SDS011;11039;50.028;19.938;2023-03-11T01:00:24;6.70;;;3.42;;
21754;SDS011;11039;50.028;19.938;2023-03-11T01:02:51;7.40;;;3.25;;
21754;SDS011;11039;50.028;19.938;2023-03-11T01:05:22;5.15;;;3.22;;
21754;SDS011;11039;50.028;19.938;2023-03-11T01:07:48;4.60;;;3.05;;
21754;SDS011;11039;50.028;19.938;2023-03-11T01:10:15;4.78;;;2.63;;
21754;SDS011;11039;50.028;19.938;2023-03-11T01:12:41;7.10;;;3.50;;
21754;SDS011;11039;50.028;19.938;2023-03-11T01:15:08;5.25;;;3.20;;
21754;SDS011;11039;50.028;19.938;2023-03-11T01:17:35;4.97;;;2.95;;
21754;SDS011;11039;50.028;19.938;2023-03-11T01:20:01;5.07;;;2.80;;
21754;SDS011;11039;50.028;19.938;2023-03-11T01:22:30;5.82;;;3.15;;
21754;SDS011;11039;50.028;19.938;2023-03-11T01:24:56;4.43;;;2.67;;
21754;SDS011;11039;50.028;19.938;2023-03-11T01:27:22;4.88;;;3.00;;
21754;SDS011;11039;50.028;19.938;2023-03-11T01:29:49;5.50;;;2.80;;
21754;SDS011;11039;50.028;19.938;2023-03-11T01:32:15;4.68;;;2.83;;
21754;SDS011;11039;50.028;19.938;2023-03-11T01:34:41;5.47;;;3.00;;
21754;SDS011;11039;50.028;19.938;2023-03-11T01:37:07;5.72;;;2.90;;
21754;SDS011;11039;50.028;19.938;2023-03-11T01:39:33;3.95;;;2.55;;
21754;SDS011;11039;50.028;19.938;2023-03-11T01:41:59;4.85;;;2.83;;
21754;SDS011;11039;50.028;19.938;2023-03-11T01:44:25;4.25;;;2.42;;
21754;SDS011;11039;50.028;19.938;2023-03-11T01:49:19;3.75;;;2.63;;
21754;SDS011;11039;50.028;19.938;2023-03-11T01:51:46;3.88;;;2.42;;
21754;SDS011;11039;50.028;19.938;2023-03-11T01:54:15;4.28;;;2.50;;
21754;SDS011;11039;50.028;19.938;2023-03-11T01:56:43;4.20;;;2.40;;
21754;SDS011;11039;50.028;19.938;2023-03-11T01:59:10;4.57;;;2.45;;
21754;SDS011;11039;50.028;19.938;2023-03-11T02:01:38;5.88;;;2.60;;
21754;SDS011;11039;50.028;19.938;2023-03-11T02:04:08;3.60;;;2.15;;
21754;SDS011;11039;50.028;19.938;2023-03-11T02:06:34;3.72;;;2.20;;
21754;SDS011;11039;50.028;19.938;2023-03-11T02:09:00;3.90;;;2.15;;
21754;SDS011;11039;50.028;19.938;2023-03-11T02:11:27;4.00;;;2.20;;
21754;SDS011;11039;50.028;19.938;2023-03-11T02:13:56;2.83;;;2.15;;
21754;SDS011;11039;50.028;19.938;2023-03-11T02:16:24;3.10;;;1.90;;
21754;SDS011;11039;50.028;19.938;2023-03-11T02:18:50;4.32;;;2.30;;
21754;SDS011;11039;50.028;19.938;2023-03-11T02:21:24;2.72;;;2.10;;
21754;SDS011;11039;50.028;19.938;2023-03-11T02:27:08;3.78;;;2.00;;
21754;SDS011;11039;50.028;19.938;2023-03-11T02:29:08;2.92;;;1.75;;
21754;SDS011;11039;50.028;19.938;2023-03-11T02:31:36;3.85;;;2.00;;
21754;SDS011;11039;50.028;19.938;2023-03-11T02:34:03;3.85;;;2.25;;
21754;SDS011;11039;50.028;19.938;2023-03-11T02:38:57;3.55;;;1.90;;
21754;SDS011;11039;50.028;19.938;2023-03-11T02:41:23;2.05;;;1.77;;
21754;SDS011;11039;50.028;19.938;2023-03-11T02:43:49;2.50;;;1.60;;
21754;SDS011;11039;50.028;19.938;2023-03-11T02:46:15;3.10;;;1.60;;
21754;SDS011;11039;50.028;19.938;2023-03-11T02:48:42;2.17;;;1.52;;
21754;SDS011;11039;50.028;19.938;2023-03-11T02:51:09;3.10;;;1.58;;
21754;SDS011;11039;50.028;19.938;2023-03-11T02:53:38;2.35;;;1.50;;
21754;SDS011;11039;50.028;19.938;2023-03-11T02:56:05;2.35;;;1.63;;
21754;SDS011;11039;50.028;19.938;2023-03-11T02:58:31;1.98;;;1.50;;
21754;SDS011;11039;50.028;19.938;2023-03-11T03:00:57;3.15;;;1.80;;
21754;SDS011;11039;50.028;19.938;2023-03-11T03:03:23;2.33;;;1.50;;
21754;SDS011;11039;50.028;19.938;2023-03-11T03:05:49;2.15;;;1.30;;
21754;SDS011;11039;50.028;19.938;2023-03-11T03:08:15;2.28;;;1.60;;
21754;SDS011;11039;50.028;19.938;2023-03-11T03:10:41;1.80;;;1.30;;
21754;SDS011;11039;50.028;19.938;2023-03-11T03:13:07;2.72;;;1.60;;
21754;SDS011;11039;50.028;19.938;2023-03-11T03:15:34;3.42;;;1.50;;
21754;SDS011;11039;50.028;19.938;2023-03-11T03:18:00;2.15;;;1.17;;
21754;SDS011;11039;50.028;19.938;2023-03-11T03:20:26;2.03;;;1.42;;
21754;SDS011;11039;50.028;19.938;2023-03-11T03:22:52;1.88;;;1.33;;
21754;SDS011;11039;50.028;19.938;2023-03-11T03:25:18;2.90;;;1.30;;
21754;SDS011;11039;50.028;19.938;2023-03-11T03:27:44;1.88;;;1.10;;
21754;SDS011;11039;50.028;19.938;2023-03-11T03:30:10;1.33;;;0.98;;
21754;SDS011;11039;50.028;19.938;2023-03-11T03:32:36;1.48;;;1.10;;
21754;SDS011;11039;50.028;19.938;2023-03-11T03:35:03;1.45;;;1.10;;
21754;SDS011;11039;50.028;19.938;2023-03-11T03:37:31;2.03;;;1.33;;
21754;SDS011;11039;50.028;19.938;2023-03-11T03:39:57;1.55;;;1.10;;
21754;SDS011;11039;50.028;19.938;2023-03-11T03:42:23;1.45;;;1.10;;
21754;SDS011;11039;50.028;19.938;2023-03-11T03:44:52;1.67;;;1.00;;
21754;SDS011;11039;50.028;19.938;2023-03-11T03:47:19;1.58;;;1.10;;
21754;SDS011;11039;50.028;19.938;2023-03-11T03:49:45;1.05;;;0.90;;
21754;SDS011;11039;50.028;19.938;2023-03-11T03:52:11;1.90;;;1.10;;
21754;SDS011;11039;50.028;19.938;2023-03-11T03:54:37;1.38;;;1.00;;
21754;SDS011;11039;50.028;19.938;2023-03-11T03:57:03;1.88;;;1.13;;
21754;SDS011;11039;50.028;19.938;2023-03-11T03:59:29;2.65;;;0.90;;
21754;SDS011;11039;50.028;19.938;2023-03-11T04:01:55;1.42;;;0.80;;
21754;SDS011;11039;50.028;19.938;2023-03-11T04:04:21;1.08;;;0.68;;
21754;SDS011;11039;50.028;19.938;2023-03-11T04:06:47;1.23;;;0.82;;
21754;SDS011;11039;50.028;19.938;2023-03-11T04:09:13;1.45;;;0.90;;
21754;SDS011;11039;50.028;19.938;2023-03-11T04:11:39;1.27;;;0.90;;
21754;SDS011;11039;50.028;19.938;2023-03-11T04:14:06;1.48;;;0.80;;
21754;SDS011;11039;50.028;19.938;2023-03-11T04:16:32;1.08;;;0.70;;
21754;SDS011;11039;50.028;19.938;2023-03-11T04:18:58;1.55;;;0.73;;
21754;SDS011;11039;50.028;19.938;2023-03-11T04:21:24;0.98;;;0.77;;
21754;SDS011;11039;50.028;19.938;2023-03-11T04:23:50;1.27;;;0.82;;
21754;SDS011;11039;50.028;19.938;2023-03-11T04:26:16;1.20;;;0.70;;
21754;SDS011;11039;50.028;19.938;2023-03-11T04:28:42;1.15;;;0.80;;
21754;SDS011;11039;50.028;19.938;2023-03-11T04:31:08;0.93;;;0.68;;
21754;SDS011;11039;50.028;19.938;2023-03-11T04:33:34;1.13;;;0.80;;
21754;SDS011;11039;50.028;19.938;2023-03-11T04:36:03;0.98;;;0.80;;
21754;SDS011;11039;50.028;19.938;2023-03-11T04:38:29;0.75;;;0.60;;
21754;SDS011;11039;50.028;19.938;2023-03-11T04:40:59;1.25;;;0.70;;
21754;SDS011;11039;50.028;19.938;2023-03-11T04:43:25;0.95;;;0.50;;
21754;SDS011;11039;50.028;19.938;2023-03-11T04:45:51;0.82;;;0.60;;
21754;SDS011;11039;50.028;19.938;2023-03-11T04:48:17;0.68;;;0.50;;
21754;SDS011;11039;50.028;19.938;2023-03-11T04:50:43;1.20;;;0.70;;
21754;SDS011;11039;50.028;19.938;2023-03-11T04:53:09;0.90;;;0.50;;
21754;SDS011;11039;50.028;19.938;2023-03-11T04:55:35;1.23;;;0.52;;
21754;SDS011;11039;50.028;19.938;2023-03-11T04:58:02;0.52;;;0.43;;
21754;SDS011;11039;50.028;19.938;2023-03-11T05:00:28;1.25;;;0.40;;
21754;SDS011;11039;50.028;19.938;2023-03-11T05:02:54;0.47;;;0.40;;
21754;SDS011;11039;50.028;19.938;2023-03-11T05:05:20;1.35;;;0.73;;
21754;SDS011;11039;50.028;19.938;2023-03-11T05:07:46;0.55;;;0.40;;
21754;SDS011;11039;50.028;19.938;2023-03-11T05:10:13;0.77;;;0.50;;
21754;SDS011;11039;50.028;19.938;2023-03-11T05:12:39;0.55;;;0.40;;
21754;SDS011;11039;50.028;19.938;2023-03-11T05:15:05;0.63;;;0.50;;
21754;SDS011;11039;50.028;19.938;2023-03-11T05:17:31;0.77;;;0.50;;
21754;SDS011;11039;50.028;19.938;2023-03-11T05:19:57;0.85;;;0.50;;
21754;SDS011;11039;50.028;19.938;2023-03-11T05:22:23;0.50;;;0.40;;
21754;SDS011;11039;50.028;19.938;2023-03-11T05:24:49;0.52;;;0.47;;
21754;SDS011;11039;50.028;19.938;2023-03-11T05:27:15;0.73;;;0.40;;
21754;SDS011;11039;50.028;19.938;2023-03-11T05:29:42;0.73;;;0.40;;
21754;SDS011;11039;50.028;19.938;2023-03-11T05:32:09;0.50;;;0.40;;
21754;SDS011;11039;50.028;19.938;2023-03-11T05:34:35;0.85;;;0.43;;
21754;SDS011;11039;50.028;19.938;2023-03-11T05:37:02;1.02;;;0.43;;
21754;SDS011;11039;50.028;19.938;2023-03-11T05:39:28;0.40;;;0.30;;
21754;SDS011;11039;50.028;19.938;2023-03-11T05:41:54;0.40;;;0.30;;
21754;SDS011;11039;50.028;19.938;2023-03-11T05:44:21;0.40;;;0.30;;
21754;SDS011;11039;50.028;19.938;2023-03-11T05:46:47;0.73;;;0.40;;
21754;SDS011;11039;50.028;19.938;2023-03-11T05:49:13;0.70;;;0.30;;
21754;SDS011;11039;50.028;19.938;2023-03-11T05:51:39;0.57;;;0.30;;
21754;SDS011;11039;50.028;19.938;2023-03-11T05:54:05;0.85;;;0.40;;
21754;SDS011;11039;50.028;19.938;2023-03-11T05:56:38;0.57;;;0.35;;
21754;SDS011;11039;50.028;19.938;2023-03-11T05:59:05;0.60;;;0.32;;
21754;SDS011;11039;50.028;19.938;2023-03-11T06:01:31;1.50;;;0.30;;
21754;SDS011;11039;50.028;19.938;2023-03-11T06:03:57;0.38;;;0.25;;
21754;SDS011;11039;50.028;19.938;2023-03-11T06:06:24;0.80;;;0.30;;
21754;SDS011;11039;50.028;19.938;2023-03-11T06:08:50;0.82;;;0.40;;
21754;SDS011;11039;50.028;19.938;2023-03-11T06:11:16;0.80;;;0.20;;
21754;SDS011;11039;50.028;19.938;2023-03-11T06:13:43;0.52;;;0.30;;
21754;SDS011;11039;50.028;19.938;2023-03-11T06:16:09;0.50;;;0.20;;
21754;SDS011;11039;50.028;19.938;2023-03-11T06:18:35;1.40;;;0.30;;
21754;SDS011;11039;50.028;19.938;2023-03-11T06:21:01;0.52;;;0.32;;
21754;SDS011;11039;50.028;19.938;2023-03-11T06:23:28;0.43;;;0.25;;
21754;SDS011;11039;50.028;19.938;2023-03-11T06:25:58;0.45;;;0.30;;
21754;SDS011;11039;50.028;19.938;2023-03-11T06:28:24;0.38;;;0.25;;
21754;SDS011;11039;50.028;19.938;2023-03-11T06:30:50;0.77;;;0.30;;
21754;SDS011;11039;50.028;19.938;2023-03-11T06:33:16;0.77;;;0.30;;
21754;SDS011;11039;50.028;19.938;2023-03-11T06:35:42;0.75;;;0.40;;
21754;SDS011;11039;50.028;19.938;2023-03-11T06:38:08;0.40;;;0.30;;
21754;SDS011;11039;50.028;19.938;2023-03-11T06:40:36;0.45;;;0.30;;
21754;SDS011;11039;50.028;19.938;2023-03-11T06:43:02;0.40;;;0.30;;
21754;SDS011;11039;50.028;19.938;2023-03-11T06:45:28;0.40;;;0.40;;
21754;SDS011;11039;50.028;19.938;2023-03-11T06:47:54;0.30;;;0.30;;
21754;SDS011;11039;50.028;19.938;2023-03-11T06:50:20;0.40;;;0.30;;
21754;SDS011;11039;50.028;19.938;2023-03-11T06:52:48;0.90;;;0.40;;
21754;SDS011;11039;50.028;19.938;2023-03-11T06:55:14;0.45;;;0.40;;
21754;SDS011;11039;50.028;19.938;2023-03-11T06:57:40;1.65;;;0.40;;
21754;SDS011;11039;50.028;19.938;2023-03-11T07:00:06;1.15;;;0.40;;
21754;SDS011;11039;50.028;19.938;2023-03-11T07:02:36;0.43;;;0.30;;
21754;SDS011;11039;50.028;19.938;2023-03-11T07:05:02;0.65;;;0.30;;
21754;SDS011;11039;50.028;19.938;2023-03-11T07:07:28;0.65;;;0.43;;
21754;SDS011;11039;50.028;19.938;2023-03-11T07:09:54;1.38;;;0.32;;
21754;SDS011;11039;50.028;19.938;2023-03-11T07:12:23;0.80;;;0.60;;
21754;SDS011;11039;50.028;19.938;2023-03-11T07:14:53;0.50;;;0.32;;
21754;SDS011;11039;50.028;19.938;2023-03-11T07:17:19;0.55;;;0.30;;
21754;SDS011;11039;50.028;19.938;2023-03-11T07:19:45;0.82;;;0.30;;
21754;SDS011;11039;50.028;19.938;2023-03-11T07:22:11;1.10;;;0.30;;
21754;SDS011;11039;50.028;19.938;2023-03-11T07:24:38;1.60;;;0.30;;
21754;SDS011;11039;50.028;19.938;2023-03-11T07:27:04;0.40;;;0.20;;
21754;SDS011;11039;50.028;19.938;2023-03-11T07:29:30;1.60;;;0.30;;
21754;SDS011;11039;50.028;19.938;2023-03-11T07:31:56;0.60;;;0.38;;
21754;SDS011;11039;50.028;19.938;2023-03-11T07:34:22;0.75;;;0.30;;
21754;SDS011;11039;50.028;19.938;2023-03-11T07:36:48;0.73;;;0.30;;
21754;SDS011;11039;50.028;19.938;2023-03-11T07:39:15;0.40;;;0.30;;
21754;SDS011;11039;50.028;19.938;2023-03-11T07:41:42;0.50;;;0.20;;
21754;SDS011;11039;50.028;19.938;2023-03-11T07:44:09;0.20;;;0.20;;
21754;SDS011;11039;50.028;19.938;2023-03-11T07:46:36;0.68;;;0.40;;
21754;SDS011;11039;50.028;19.938;2023-03-11T07:49:02;0.28;;;0.20;;
21754;SDS011;11039;50.028;19.938;2023-03-11T07:51:29;0.50;;;0.30;;
21754;SDS011;11039;50.028;19.938;2023-03-11T07:53:56;0.40;;;0.30;;
21754;SDS011;11039;50.028;19.938;2023-03-11T07:56:22;0.28;;;0.28;;
21754;SDS011;11039;50.028;19.938;2023-03-11T07:58:49;0.73;;;0.47;;
21754;SDS011;11039;50.028;19.938;2023-03-11T08:01:20;0.40;;;0.30;;
21754;SDS011;11039;50.028;19.938;2023-03-11T08:03:47;0.60;;;0.40;;
21754;SDS011;11039;50.028;19.938;2023-03-11T08:06:21;0.50;;;0.30;;
21754;SDS011;11039;50.028;19.938;2023-03-11T08:08:48;0.40;;;0.30;;
21754;SDS011;11039;50.028;19.938;2023-03-11T08:11:15;0.70;;;0.30;;
21754;SDS011;11039;50.028;19.938;2023-03-11T08:13:42;0.32;;;0.30;;
21754;SDS011;11039;50.028;19.938;2023-03-11T08:16:09;0.50;;;0.30;;
21754;SDS011;11039;50.028;19.938;2023-03-11T08:18:35;0.70;;;0.30;;
21754;SDS011;11039;50.028;19.938;2023-03-11T08:21:05;1.70;;;0.30;;
21754;SDS011;11039;50.028;19.938;2023-03-11T08:23:31;0.40;;;0.22;;
21754;SDS011;11039;50.028;19.938;2023-03-11T08:25:57;1.00;;;0.30;;
21754;SDS011;11039;50.028;19.938;2023-03-11T08:28:23;0.95;;;0.45;;
21754;SDS011;11039;50.028;19.938;2023-03-11T08:30:49;0.57;;;0.30;;
21754;SDS011;11039;50.028;19.938;2023-03-11T08:33:15;0.68;;;0.40;;
21754;SDS011;11039;50.028;19.938;2023-03-11T08:35:41;0.88;;;0.40;;
21754;SDS011;11039;50.028;19.938;2023-03-11T08:38:07;0.40;;;0.30;;
21754;SDS011;11039;50.028;19.938;2023-03-11T08:40:33;0.50;;;0.30;;
21754;SDS011;11039;50.028;19.938;2023-03-11T08:42:59;0.80;;;0.40;;
21754;SDS011;11039;50.028;19.938;2023-03-11T08:45:26;0.50;;;0.35;;
21754;SDS011;11039;50.028;19.938;2023-03-11T08:47:52;0.38;;;0.30;;
21754;SDS011;11039;50.028;19.938;2023-03-11T08:50:18;0.60;;;0.40;;
21754;SDS011;11039;50.028;19.938;2023-03-11T08:52:44;1.92;;;0.50;;
21754;SDS011;11039;50.028;19.938;2023-03-11T08:55:12;1.00;;;0.30;;
21754;SDS011;11039;50.028;19.938;2023-03-11T08:57:39;3.35;;;0.60;;
21754;SDS011;11039;50.028;19.938;2023-03-11T09:00:06;2.13;;;0.50;;
21754;SDS011;11039;50.028;19.938;2023-03-11T09:02:33;6.57;;;0.55;;
21754;SDS011;11039;50.028;19.938;2023-03-11T09:04:59;0.45;;;0.25;;
21754;SDS011;11039;50.028;19.938;2023-03-11T09:07:25;7.25;;;0.60;;
21754;SDS011;11039;50.028;19.938;2023-03-11T09:09:51;4.30;;;0.30;;
21754;SDS011;11039;50.028;19.938;2023-03-11T09:12:18;2.00;;;0.40;;
21754;SDS011;11039;50.028;19.938;2023-03-11T09:14:44;1.20;;;0.40;;
21754;SDS011;11039;50.028;19.938;2023-03-11T09:17:11;1.33;;;0.40;;
21754;SDS011;11039;50.028;19.938;2023-03-11T09:19:38;1.45;;;0.22;;
21754;SDS011;11039;50.028;19.938;2023-03-11T09:22:04;3.30;;;0.70;;
21754;SDS011;11039;50.028;19.938;2023-03-11T09:24:33;1.65;;;0.90;;
21754;SDS011;11039;50.028;19.938;2023-03-11T09:27:00;2.03;;;0.90;;
21754;SDS011;11039;50.028;19.938;2023-03-11T09:29:26;2.00;;;0.95;;
21754;SDS011;11039;50.028;19.938;2023-03-11T09:31:52;1.33;;;0.80;;
21754;SDS011;11039;50.028;19.938;2023-03-11T09:34:18;1.05;;;0.80;;
21754;SDS011;11039;50.028;19.938;2023-03-11T09:36:44;3.20;;;0.90;;
21754;SDS011;11039;50.028;19.938;2023-03-11T09:39:11;1.35;;;0.60;;
21754;SDS011;11039;50.028;19.938;2023-03-11T09:44:17;3.38;;;0.80;;
21754;SDS011;11039;50.028;19.938;2023-03-11T09:46:49;3.00;;;0.95;;
21754;SDS011;11039;50.028;19.938;2023-03-11T09:52:09;1.23;;;0.82;;
21754;SDS011;11039;50.028;19.938;2023-03-11T09:54:52;1.48;;;1.02;;
21754;SDS011;11039;50.028;19.938;2023-03-11T09:57:24;1.98;;;1.00;;
21754;SDS011;11039;50.028;19.938;2023-03-11T09:59:51;1.08;;;0.77;;
21754;SDS011;11039;50.028;19.938;2023-03-11T10:02:18;1.95;;;0.90;;
21754;SDS011;11039;50.028;19.938;2023-03-11T10:04:56;1.75;;;1.10;;
21754;SDS011;11039;50.028;19.938;2023-03-11T10:07:33;1.58;;;1.00;;
21754;SDS011;11039;50.028;19.938;2023-03-11T10:10:01;1.00;;;0.90;;
21754;SDS011;11039;50.028;19.938;2023-03-11T10:28:30;2.30;;;1.17;;
21754;SDS011;11039;50.028;19.938;2023-03-11T10:31:41;1.40;;;0.90;;
21754;SDS011;11039;50.028;19.938;2023-03-11T10:36:20;2.10;;;1.20;;
21754;SDS011;11039;50.028;19.938;2023-03-11T10:38:49;2.13;;;1.23;;
21754;SDS011;11039;50.028;19.938;2023-03-11T10:43:44;1.40;;;1.10;;
21754;SDS011;11039;50.028;19.938;2023-03-11T10:46:23;1.27;;;0.98;;
21754;SDS011;11039;50.028;19.938;2023-03-11T10:48:49;1.80;;;1.10;;
21754;SDS011;11039;50.028;19.938;2023-03-11T10:51:16;1.30;;;0.90;;
21754;SDS011;11039;50.028;19.938;2023-03-11T10:53:48;1.42;;;0.70;;
21754;SDS011;11039;50.028;19.938;2023-03-11T10:56:23;1.50;;;0.80;;
21754;SDS011;11039;50.028;19.938;2023-03-11T10:58:49;1.83;;;1.10;;
21754;SDS011;11039;50.028;19.938;2023-03-11T11:01:16;1.20;;;0.82;;
21754;SDS011;11039;50.028;19.938;2023-03-11T11:03:43;1.15;;;0.98;;
21754;SDS011;11039;50.028;19.938;2023-03-11T11:06:31;0.82;;;0.77;;
21754;SDS011;11039;50.028;19.938;2023-03-11T11:14:50;2.40;;;1.55;;
21754;SDS011;11039;50.028;19.938;2023-03-11T11:17:18;1.77;;;0.90;;
21754;SDS011;11039;50.028;19.938;2023-03-11T11:19:45;2.17;;;1.10;;
21754;SDS011;11039;50.028;19.938;2023-03-11T11:22:16;2.65;;;1.15;;
21754;SDS011;11039;50.028;19.938;2023-03-11T11:24:43;2.45;;;1.42;;
21754;SDS011;11039;50.028;19.938;2023-03-11T11:29:38;1.60;;;1.17;;
21754;SDS011;11039;50.028;19.938;2023-03-11T11:34:53;1.55;;;1.15;;
21754;SDS011;11039;50.028;19.938;2023-03-11T11:37:19;2.42;;;1.50;;
21754;SDS011;11039;50.028;19.938;2023-03-11T11:39:49;1.88;;;1.30;;
21754;SDS011;11039;50.028;19.938;2023-03-11T11:42:17;1.70;;;1.13;;
21754;SDS011;11039;50.028;19.938;2023-03-11T11:44:45;2.35;;;1.50;;
21754;SDS011;11039;50.028;19.938;2023-03-11T11:47:14;2.08;;;1.40;;
21754;SDS011;11039;50.028;19.938;2023-03-11T11:49:48;2.03;;;1.50;;
21754;SDS011;11039;50.028;19.938;2023-03-11T11:52:15;2.35;;;1.30;;
21754;SDS011;11039;50.028;19.938;2023-03-11T11:54:45;1.52;;;1.10;;
21754;SDS011;11039;50.028;19.938;2023-03-11T11:57:17;1.70;;;1.30;;
21754;SDS011;11039;50.028;19.938;2023-03-11T11:59:44;2.17;;;1.10;;
21754;SDS011;11039;50.028;19.938;2023-03-11T12:12:26;1.80;;;0.80;;
21754;SDS011;11039;50.028;19.938;2023-03-11T12:15:13;1.58;;;1.00;;
21754;SDS011;11039;50.028;19.938;2023-03-11T12:17:41;1.42;;;1.00;;
21754;SDS011;11039;50.028;19.938;2023-03-11T12:20:13;0.88;;;0.75;;
21754;SDS011;11039;50.028;19.938;2023-03-11T12:25:44;1.17;;;0.95;;
21754;SDS011;11039;50.028;19.938;2023-03-11T12:28:18;1.70;;;1.08;;
21754;SDS011;11039;50.028;19.938;2023-03-11T12:30:46;0.98;;;0.60;;
21754;SDS011;11039;50.028;19.938;2023-03-11T12:35:47;2.85;;;0.90;;
21754;SDS011;11039;50.028;19.938;2023-03-11T12:38:15;3.95;;;0.90;;
21754;SDS011;11039;50.028;19.938;2023-03-11T12:45:54;1.00;;;0.73;;
21754;SDS011;11039;50.028;19.938;2023-03-11T12:48:24;1.52;;;0.70;;
21754;SDS011;11039;50.028;19.938;2023-03-11T12:50:50;0.75;;;0.55;;
21754;SDS011;11039;50.028;19.938;2023-03-11T12:53:16;2.53;;;0.80;;
21754;SDS011;11039;50.028;19.938;2023-03-11T12:56:00;1.02;;;0.68;;
21754;SDS011;11039;50.028;19.938;2023-03-11T12:58:42;0.98;;;0.57;;
21754;SDS011;11039;50.028;19.938;2023-03-11T13:01:20;1.13;;;0.70;;
21754;SDS011;11039;50.028;19.938;2023-03-11T13:03:55;0.95;;;0.60;;
21754;SDS011;11039;50.028;19.938;2023-03-11T13:06:44;1.20;;;0.75;;
21754;SDS011;11039;50.028;19.938;2023-03-11T13:09:13;0.95;;;0.60;;
21754;SDS011;11039;50.028;19.938;2023-03-11T13:11:42;0.65;;;0.45;;
21754;SDS011;11039;50.028;19.938;2023-03-11T13:16:36;0.88;;;0.60;;
21754;SDS011;11039;50.028;19.938;2023-03-11T13:21:47;0.70;;;0.60;;
21754;SDS011;11039;50.028;19.938;2023-03-11T13:24:38;1.55;;;0.50;;
21754;SDS011;11039;50.028;19.938;2023-03-11T13:37:08;1.50;;;0.50;;
21754;SDS011;11039;50.028;19.938;2023-03-11T13:42:59;0.50;;;0.40;;
21754;SDS011;11039;50.028;19.938;2023-03-11T13:44:59;0.70;;;0.47;;
21754;SDS011;11039;50.028;19.938;2023-03-11T13:47:28;0.60;;;0.40;;
21754;SDS011;11039;50.028;19.938;2023-03-11T13:50:04;0.75;;;0.50;;
21754;SDS011;11039;50.028;19.938;2023-03-11T13:52:32;1.08;;;0.50;;
21754;SDS011;11039;50.028;19.938;2023-03-11T13:57:31;0.70;;;0.47;;
21754;SDS011;11039;50.028;19.938;2023-03-11T14:00:03;0.75;;;0.50;;
21754;SDS011;11039;50.028;19.938;2023-03-11T14:02:29;0.57;;;0.32;;
21754;SDS011;11039;50.028;19.938;2023-03-11T14:05:03;1.08;;;0.70;;
21754;SDS011;11039;50.028;19.938;2023-03-11T14:07:32;0.50;;;0.40;;
21754;SDS011;11039;50.028;19.938;2023-03-11T14:10:59;0.82;;;0.60;;
21754;SDS011;11039;50.028;19.938;2023-03-11T14:13:14;0.77;;;0.47;;
21754;SDS011;11039;50.028;19.938;2023-03-11T14:15:51;0.70;;;0.55;;
21754;SDS011;11039;50.028;19.938;2023-03-11T14:21:13;1.00;;;0.70;;
21754;SDS011;11039;50.028;19.938;2023-03-11T14:23:41;1.48;;;0.60;;
21754;SDS011;11039;50.028;19.938;2023-03-11T14:26:10;0.98;;;0.70;;
21754;SDS011;11039;50.028;19.938;2023-03-11T14:28:38;0.60;;;0.50;;
21754;SDS011;11039;50.028;19.938;2023-03-11T14:31:05;0.70;;;0.50;;
21754;SDS011;11039;50.028;19.938;2023-03-11T14:33:31;1.00;;;0.60;;
21754;SDS011;11039;50.028;19.938;2023-03-11T14:35:58;0.50;;;0.40;;
21754;SDS011;11039;50.028;19.938;2023-03-11T14:38:26;0.70;;;0.60;;
21754;SDS011;11039;50.028;19.938;2023-03-11T14:40:54;0.80;;;0.57;;
21754;SDS011;11039;50.028;19.938;2023-03-11T14:43:21;0.60;;;0.43;;
21754;SDS011;11039;50.028;19.938;2023-03-11T14:45:47;1.48;;;0.68;;
21754;SDS011;11039;50.028;19.938;2023-03-11T14:48:17;0.77;;;0.55;;
21754;SDS011;11039;50.028;19.938;2023-03-11T14:50:45;0.77;;;0.50;;
21754;SDS011;11039;50.028;19.938;2023-03-11T15:00:45;0.55;;;0.40;;
21754;SDS011;11039;50.028;19.938;2023-03-11T15:06:01;0.80;;;0.50;;
21754;SDS011;11039;50.028;19.938;2023-03-11T15:08:29;0.80;;;0.70;;
21754;SDS011;11039;50.028;19.938;2023-03-11T15:11:42;0.80;;;0.50;;
21754;SDS011;11039;50.028;19.938;2023-03-11T15:13:46;0.80;;;0.60;;
21754;SDS011;11039;50.028;19.938;2023-03-11T15:16:23;0.60;;;0.50;;
21754;SDS011;11039;50.028;19.938;2023-03-11T15:18:49;1.15;;;0.50;;
21754;SDS011;11039;50.028;19.938;2023-03-11T15:21:16;1.05;;;0.52;;
21754;SDS011;11039;50.028;19.938;2023-03-11T15:23:44;2.00;;;0.50;;
21754;SDS011;11039;50.028;19.938;2023-03-11T15:26:20;0.80;;;0.45;;
21754;SDS011;11039;50.028;19.938;2023-03-11T15:29:01;0.68;;;0.50;;
21754;SDS011;11039;50.028;19.938;2023-03-11T15:31:32;0.80;;;0.50;;
21754;SDS011;11039;50.028;19.938;2023-03-11T15:36:43;0.85;;;0.50;;
21754;SDS011;11039;50.028;19.938;2023-03-11T15:44:30;0.77;;;0.60;;
21754;SDS011;11039;50.028;19.938;2023-03-11T15:46:57;1.10;;;0.60;;
21754;SDS011;11039;50.028;19.938;2023-03-11T15:49:25;0.60;;;0.50;;
21754;SDS011;11039;50.028;19.938;2023-03-11T15:51:51;0.68;;;0.50;;
21754;SDS011;11039;50.028;19.938;2023-03-11T15:54:17;0.90;;;0.60;;
21754;SDS011;11039;50.028;19.938;2023-03-11T15:56:43;1.05;;;0.50;;
21754;SDS011;11039;50.028;19.938;2023-03-11T15:59:13;0.57;;;0.47;;
21754;SDS011;11039;50.028;19.938;2023-03-11T16:01:40;0.40;;;0.40;;
21754;SDS011;11039;50.028;19.938;2023-03-11T16:04:13;0.77;;;0.60;;
21754;SDS011;11039;50.028;19.938;2023-03-11T16:06:40;0.43;;;0.40;;
21754;SDS011;11039;50.028;19.938;2023-03-11T16:09:06;0.50;;;0.45;;
21754;SDS011;11039;50.028;19.938;2023-03-11T16:11:32;0.82;;;0.68;;
21754;SDS011;11039;50.028;19.938;2023-03-11T16:13:59;0.70;;;0.50;;
21754;SDS011;11039;50.028;19.938;2023-03-11T16:16:25;0.77;;;0.50;;
21754;SDS011;11039;50.028;19.938;2023-03-11T16:18:51;0.63;;;0.52;;
21754;SDS011;11039;50.028;19.938;2023-03-11T16:21:18;0.70;;;0.50;;
21754;SDS011;11039;50.028;19.938;2023-03-11T16:23:45;0.70;;;0.52;;
21754;SDS011;11039;50.028;19.938;2023-03-11T16:26:12;1.17;;;0.60;;